createdAt,value
2023-03-13T00:00:32.602Z,7.78
2023-03-13T00:03:00.298Z,7.50
2023-03-13T00:05:26.730Z,7.70
2023-03-13T00:07:53.139Z,6.93
2023-03-13T00:10:19.567Z,8.02
2023-03-13T00:12:45.868Z,7.20
2023-03-13T00:15:12.472Z,7.43
2023-03-13T00:17:38.941Z,7.28
2023-03-13T00:20:05.607Z,7.55
2023-03-13T00:22:32.024Z,6.30
2023-03-13T00:24:58.755Z,7.55
2023-03-13T00:27:25.428Z,7.30
2023-03-13T00:29:52.163Z,6.45
2023-03-13T00:32:18.682Z,7.18
2023-03-13T00:34:45.016Z,6.65
2023-03-13T00:37:11.821Z,7.00
2023-03-13T00:39:38.348Z,6.63
2023-03-13T00:42:05.065Z,6.70
2023-03-13T00:44:31.724Z,7.05
2023-03-13T00:46:58.342Z,6.85
2023-03-13T00:49:24.995Z,6.43
2023-03-13T00:51:51.399Z,6.75
2023-03-13T00:54:17.793Z,5.75
2023-03-13T00:56:44.317Z,7.22
2023-03-13T00:59:10.703Z,6.63
2023-03-13T01:01:37.095Z,6.15
2023-03-13T01:04:03.658Z,6.35
2023-03-13T01:06:30.010Z,7.10
2023-03-13T01:08:56.674Z,6.25
2023-03-13T01:11:23.012Z,5.90
2023-03-13T01:13:49.490Z,6.38
2023-03-13T01:16:16.133Z,5.97
2023-03-13T01:18:42.574Z,5.95
2023-03-13T01:21:09.155Z,6.03
2023-03-13T01:23:35.534Z,6.15
2023-03-13T01:26:01.932Z,5.70
2023-03-13T01:28:28.364Z,6.15
2023-03-13T01:30:54.681Z,5.82
2023-03-13T01:33:21.081Z,5.75
2023-03-13T01:35:47.619Z,5.80
2023-03-13T01:38:13.972Z,6.20
2023-03-13T01:40:40.459Z,6.10
2023-03-13T01:43:09.857Z,5.78
2023-03-13T01:45:36.222Z,6.30
2023-03-13T01:48:02.822Z,6.00
2023-03-13T01:50:29.378Z,4.97
2023-03-13T01:52:55.801Z,6.00
2023-03-13T01:55:22.158Z,5.70
2023-03-13T01:57:48.507Z,5.75
2023-03-13T02:00:14.860Z,5.15
2023-03-13T02:02:41.293Z,4.78
2023-03-13T02:05:08.197Z,5.22
2023-03-13T02:07:34.517Z,5.57
2023-03-13T02:10:01.222Z,5.32
2023-03-13T02:12:28.511Z,5.43
2023-03-13T02:14:55.406Z,5.65
2023-03-13T02:17:21.777Z,5.10
2023-03-13T02:19:48.547Z,5.70
2023-03-13T02:22:14.914Z,5.35
2023-03-13T02:24:41.249Z,5.28
2023-03-13T02:27:07.790Z,4.78
2023-03-13T02:29:34.175Z,4.78
2023-03-13T02:32:00.887Z,5.30
2023-03-13T02:34:27.251Z,5.57
2023-03-13T02:36:53.610Z,5.28
2023-03-13T02:39:19.999Z,5.15
2023-03-13T02:41:46.349Z,4.68
2023-03-13T02:44:12.991Z,4.68
2023-03-13T02:46:39.744Z,4.50
2023-03-13T02:49:06.102Z,4.85
2023-03-13T02:51:32.510Z,5.18
2023-03-13T02:53:59.279Z,4.53
2023-03-13T02:56:25.668Z,5.05
2023-03-13T02:58:52.215Z,5.00
2023-03-13T03:01:18.817Z,4.82
2023-03-13T03:03:45.230Z,4.80
2023-03-13T03:06:11.571Z,4.80
2023-03-13T03:08:37.954Z,4.40
2023-03-13T03:11:04.384Z,4.32
2023-03-13T03:13:30.812Z,4.70
2023-03-13T03:15:57.631Z,4.30
2023-03-13T03:18:24.017Z,4.63
2023-03-13T03:20:50.548Z,4.40
2023-03-13T03:23:17.149Z,4.80
2023-03-13T03:25:43.624Z,4.65
2023-03-13T03:28:10.480Z,4.15
2023-03-13T03:30:36.864Z,4.10
2023-03-13T03:33:03.263Z,4.45
2023-03-13T03:35:30.074Z,4.18
2023-03-13T03:37:56.692Z,4.68
2023-03-13T03:40:23.037Z,4.50
2023-03-13T03:42:49.618Z,4.80
2023-03-13T03:45:15.980Z,4.78
2023-03-13T03:47:42.585Z,4.47
2023-03-13T03:50:09.342Z,4.50
2023-03-13T03:52:35.729Z,3.88
2023-03-13T03:55:02.101Z,5.07
2023-03-13T03:57:28.543Z,3.55
2023-03-13T03:59:54.905Z,3.70
2023-03-13T04:02:21.498Z,4.40
2023-03-13T04:04:48.022Z,4.10
2023-03-13T04:07:14.658Z,4.63
2023-03-13T04:09:41.549Z,4.28
2023-03-13T04:12:07.932Z,3.95
2023-03-13T04:14:34.463Z,4.10
2023-03-13T04:17:00.836Z,3.95
2023-03-13T04:19:27.286Z,3.83
2023-03-13T04:21:53.588Z,3.70
2023-03-13T04:24:19.904Z,4.15
2023-03-13T04:26:46.301Z,4.25
2023-03-13T04:29:12.677Z,3.97
2023-03-13T04:31:39.233Z,4.20
2023-03-13T04:34:05.806Z,3.83
2023-03-13T04:36:32.347Z,4.05
2023-03-13T04:38:58.793Z,3.85
2023-03-13T04:41:25.194Z,3.70
2023-03-13T04:43:51.662Z,3.83
2023-03-13T04:46:18.225Z,3.80
2023-03-13T04:48:44.693Z,4.32
2023-03-13T04:51:11.060Z,4.05
2023-03-13T04:53:37.535Z,4.05
2023-03-13T04:56:03.945Z,4.35
2023-03-13T04:58:30.408Z,3.92
2023-03-13T05:00:56.726Z,3.78
2023-03-13T05:03:23.523Z,3.97
2023-03-13T05:05:49.893Z,4.18
2023-03-13T05:08:16.285Z,3.90
2023-03-13T05:10:42.660Z,3.55
2023-03-13T05:13:09.569Z,3.53
2023-03-13T05:15:36.002Z,3.42
2023-03-13T05:18:02.372Z,4.05
2023-03-13T05:20:29.049Z,3.70
2023-03-13T05:22:55.305Z,4.03
2023-03-13T05:25:22.062Z,4.03
2023-03-13T05:27:48.764Z,4.00
2023-03-13T05:30:15.144Z,3.58
2023-03-13T05:32:41.589Z,3.50
2023-03-13T05:35:08.064Z,3.55
2023-03-13T05:37:34.527Z,3.83
2023-03-13T05:40:01.042Z,3.85
2023-03-13T05:42:27.618Z,3.75
2023-03-13T05:44:53.957Z,3.78
2023-03-13T05:47:20.290Z,3.67
2023-03-13T05:49:46.723Z,3.47
2023-03-13T05:52:13.071Z,3.75
2023-03-13T05:54:39.601Z,3.65
2023-03-13T05:57:06.453Z,3.45
2023-03-13T05:59:32.802Z,3.30
2023-03-13T06:01:59.426Z,3.83
2023-03-13T06:04:25.980Z,3.53
2023-03-13T06:06:52.638Z,3.72
2023-03-13T06:09:19.226Z,3.70
2023-03-13T06:11:45.795Z,3.60
2023-03-13T06:14:12.395Z,3.58
2023-03-13T06:16:38.915Z,3.40
2023-03-13T06:19:05.300Z,3.30
2023-03-13T06:21:31.626Z,3.13
2023-03-13T06:23:58.163Z,3.67
2023-03-13T06:26:25.219Z,4.10
2023-03-13T06:28:51.536Z,3.85
2023-03-13T06:31:18.040Z,3.90
2023-03-13T06:33:44.510Z,3.97
2023-03-13T06:36:10.884Z,3.75
2023-03-13T06:38:37.935Z,2.97
2023-03-13T06:41:04.424Z,3.55
2023-03-13T06:43:30.918Z,3.70
2023-03-13T06:45:57.290Z,3.30
2023-03-13T06:48:23.688Z,3.17
2023-03-13T06:50:50.608Z,3.38
2023-03-13T06:53:17.034Z,3.47
2023-03-13T06:55:43.533Z,3.58
2023-03-13T06:58:18.844Z,3.20
2023-03-13T07:00:55.436Z,3.05
2023-03-13T07:03:21.888Z,3.47
2023-03-13T07:05:48.800Z,3.03
2023-03-13T07:08:15.216Z,3.17
2023-03-13T07:10:41.612Z,3.30
2023-03-13T07:13:08.463Z,3.35
2023-03-13T07:15:34.959Z,3.47
2023-03-13T07:18:01.734Z,3.30
2023-03-13T07:20:28.107Z,3.42
2023-03-13T07:22:54.702Z,3.65
2023-03-13T07:25:21.055Z,3.50
2023-03-13T07:27:47.971Z,3.72
2023-03-13T07:30:14.752Z,4.40
2023-03-13T07:32:41.182Z,5.25
2023-03-13T07:35:07.785Z,6.18
2023-03-13T07:37:34.098Z,6.38
2023-03-13T07:40:00.538Z,7.80
2023-03-13T07:42:27.165Z,8.73
2023-03-13T07:44:53.885Z,9.68
2023-03-13T07:47:20.299Z,10.00
2023-03-13T07:49:46.661Z,10.02
2023-03-13T07:52:13.058Z,11.77
2023-03-13T07:54:39.445Z,10.73
2023-03-13T07:57:05.829Z,12.02
2023-03-13T07:59:32.278Z,14.13
2023-03-13T08:01:59.182Z,12.77
2023-03-13T08:04:25.643Z,13.13
2023-03-13T08:06:52.017Z,14.88
2023-03-13T08:09:18.402Z,14.95
2023-03-13T08:11:45.341Z,16.02
2023-03-13T08:14:11.700Z,15.13
2023-03-13T08:16:38.101Z,15.82
2023-03-13T08:19:04.578Z,16.17
2023-03-13T08:21:31.116Z,17.05
2023-03-13T08:23:57.497Z,17.00
2023-03-13T08:26:23.855Z,17.77
2023-03-13T08:28:50.233Z,23.67
2023-03-13T08:31:16.766Z,23.30
2023-03-13T08:33:43.280Z,24.02
2023-03-13T08:36:09.602Z,25.42
2023-03-13T08:38:36.051Z,26.27
2023-03-13T08:41:02.513Z,26.02
2023-03-13T08:43:29.459Z,27.98
2023-03-13T08:45:55.906Z,27.27
2023-03-13T08:48:22.259Z,28.42
2023-03-13T08:50:48.945Z,28.05
2023-03-13T08:53:15.291Z,29.17
2023-03-13T08:55:41.996Z,29.10
2023-03-13T08:58:08.817Z,29.33
2023-03-13T09:00:35.247Z,29.85
2023-03-13T09:03:02.197Z,30.88
2023-03-13T09:05:28.629Z,30.80
2023-03-13T09:07:55.260Z,31.25
2023-03-13T09:10:21.644Z,31.20
2023-03-13T09:12:48.212Z,30.52
2023-03-13T09:15:14.792Z,31.65
2023-03-13T09:17:41.399Z,32.78
2023-03-13T09:20:08.008Z,35.53
2023-03-13T09:22:34.494Z,33.97
2023-03-13T09:25:01.032Z,33.50
2023-03-13T09:27:27.591Z,34.20
2023-03-13T09:29:53.912Z,33.88
2023-03-13T09:32:20.279Z,34.55
2023-03-13T09:34:46.649Z,33.22
2023-03-13T09:37:12.979Z,35.58
2023-03-13T09:39:39.587Z,31.42
2023-03-13T09:42:07.752Z,32.20
2023-03-13T09:44:34.307Z,32.58
2023-03-13T09:47:00.730Z,32.83
2023-03-13T09:49:27.160Z,32.10
2023-03-13T09:51:53.726Z,31.02
2023-03-13T09:54:20.239Z,31.83
2023-03-13T09:56:46.540Z,31.90
2023-03-13T09:59:12.950Z,32.22
2023-03-13T10:01:39.404Z,32.53
2023-03-13T10:04:06.049Z,31.80
2023-03-13T10:06:32.496Z,31.33
2023-03-13T10:08:59.501Z,30.80
2023-03-13T10:11:26.199Z,30.67
2023-03-13T10:13:52.877Z,30.25
2023-03-13T10:16:19.578Z,31.83
2023-03-13T10:18:46.110Z,31.40
2023-03-13T10:21:12.430Z,31.48
2023-03-13T10:23:39.122Z,29.25
2023-03-13T10:26:05.690Z,30.48
2023-03-13T10:28:31.992Z,29.45
2023-03-13T10:30:58.507Z,29.30
2023-03-13T10:33:25.429Z,28.02
2023-03-13T10:35:51.824Z,30.70
2023-03-13T10:38:18.309Z,29.67
2023-03-13T10:40:45.038Z,28.92
2023-03-13T10:43:11.470Z,27.33
2023-03-13T10:45:38.051Z,27.75
2023-03-13T10:48:04.452Z,28.17
2023-03-13T10:50:30.934Z,27.73
2023-03-13T10:52:57.412Z,26.80
2023-03-13T10:55:23.742Z,27.63
2023-03-13T10:57:50.625Z,26.73
2023-03-13T11:00:17.406Z,28.05
2023-03-13T11:02:44.136Z,26.52
2023-03-13T11:05:12.450Z,26.88
2023-03-13T11:07:40.009Z,27.30
2023-03-13T11:10:06.424Z,26.05
2023-03-13T11:12:32.939Z,26.35
2023-03-13T11:14:59.447Z,26.15
2023-03-13T11:17:25.844Z,26.02
2023-03-13T11:19:53.707Z,25.85
2023-03-13T11:22:20.108Z,26.52
2023-03-13T11:24:46.726Z,26.35
2023-03-13T11:27:13.149Z,24.58
2023-03-13T11:29:39.764Z,25.17
2023-03-13T11:32:07.884Z,25.58
2023-03-13T11:34:34.442Z,23.02
2023-03-13T11:37:00.885Z,23.02
2023-03-13T11:39:27.922Z,23.67
2023-03-13T11:41:54.328Z,23.02
2023-03-13T11:44:20.933Z,22.60
2023-03-13T11:46:47.539Z,21.77
2023-03-13T11:49:14.036Z,22.27
2023-03-13T11:51:40.640Z,22.95
2023-03-13T11:54:07.696Z,21.00
2023-03-13T11:56:34.063Z,21.60
2023-03-13T11:59:02.246Z,21.13
2023-03-13T12:01:28.803Z,19.88
2023-03-13T12:03:55.610Z,18.92
2023-03-13T12:06:28.309Z,51.63
2023-03-13T12:08:55.873Z,95.43
2023-03-13T12:11:22.268Z,76.18
2023-03-13T12:13:48.652Z,70.10
2023-03-13T12:16:15.126Z,63.80
2023-03-13T12:18:41.792Z,56.20
2023-03-13T12:21:08.649Z,51.33
2023-03-13T12:23:35.937Z,47.10
2023-03-13T12:26:02.731Z,47.13
2023-03-13T12:28:29.131Z,44.15
2023-03-13T12:30:56.062Z,41.88
2023-03-13T12:33:24.106Z,106.05
2023-03-13T12:35:51.137Z,155.25
2023-03-13T12:38:17.831Z,147.57
2023-03-13T12:40:44.619Z,133.88
2023-03-13T12:43:11.481Z,126.28
2023-03-13T12:45:38.428Z,120.90
2023-03-13T12:48:05.128Z,228.40
2023-03-13T12:50:31.881Z,222.20
2023-03-13T12:52:59.238Z,176.93
2023-03-13T12:55:26.173Z,169.50
2023-03-13T12:57:52.650Z,152.63
2023-03-13T13:00:19.474Z,142.88
2023-03-13T13:02:45.890Z,136.77
2023-03-13T13:05:12.833Z,131.43
2023-03-13T13:07:39.352Z,123.53
2023-03-13T13:10:05.757Z,113.97
2023-03-13T13:12:32.632Z,109.80
2023-03-13T13:14:59.350Z,233.27
2023-03-13T13:17:25.963Z,234.02
2023-03-13T13:19:52.373Z,211.30
2023-03-13T13:22:19.235Z,197.05
2023-03-13T13:24:45.739Z,184.35
2023-03-13T13:27:12.171Z,168.32
2023-03-13T13:29:38.964Z,158.15
2023-03-13T13:32:05.556Z,198.60
2023-03-13T13:34:31.981Z,266.50
2023-03-13T13:36:58.376Z,254.82
2023-03-13T13:39:25.080Z,226.70
2023-03-13T13:41:51.610Z,220.18
2023-03-13T13:44:17.965Z,201.27
2023-03-13T13:46:45.160Z,185.45
2023-03-13T13:49:11.677Z,197.02
2023-03-13T13:51:38.052Z,189.25
2023-03-13T13:54:04.534Z,175.82
2023-03-13T13:56:31.672Z,167.25
2023-03-13T13:58:58.642Z,169.52
2023-03-13T14:01:25.368Z,200.10
2023-03-13T14:03:51.755Z,171.73
2023-03-13T14:06:18.341Z,158.65
2023-03-13T14:08:44.801Z,147.45
2023-03-13T14:11:11.461Z,145.95
2023-03-13T14:13:38.771Z,99.97
2023-03-13T14:16:05.139Z,114.60
2023-03-13T14:18:31.485Z,105.45
2023-03-13T14:20:57.847Z,102.38
2023-03-13T14:23:24.744Z,96.10
2023-03-13T14:25:51.181Z,93.85
2023-03-13T14:28:17.896Z,86.13
2023-03-13T14:30:44.327Z,82.25
2023-03-13T14:33:10.680Z,76.68
2023-03-13T14:35:37.186Z,73.25
2023-03-13T14:38:05.118Z,68.38
2023-03-13T14:40:31.520Z,69.28
2023-03-13T14:42:58.114Z,64.07
2023-03-13T14:45:24.413Z,60.88
2023-03-13T14:47:50.777Z,58.63
2023-03-13T14:50:17.154Z,168.60
2023-03-13T14:52:43.747Z,211.13
2023-03-13T14:55:10.023Z,177.65
2023-03-13T14:57:36.720Z,168.80
2023-03-13T15:00:03.176Z,167.25
2023-03-13T15:02:29.816Z,157.43
2023-03-13T15:04:56.383Z,141.40
2023-03-13T15:07:22.886Z,135.48
2023-03-13T15:09:49.287Z,127.50
2023-03-13T15:12:16.534Z,121.75
2023-03-13T15:14:43.924Z,115.90
2023-03-13T15:17:10.276Z,109.07
2023-03-13T15:19:36.602Z,102.72
2023-03-13T15:22:02.983Z,96.95
2023-03-13T15:24:29.402Z,95.90
2023-03-13T15:26:55.689Z,90.50
2023-03-13T15:29:22.034Z,83.90
2023-03-13T15:31:48.943Z,79.53
2023-03-13T15:34:15.238Z,84.15
2023-03-13T15:36:41.871Z,195.10
2023-03-13T15:39:08.266Z,239.38
2023-03-13T15:41:34.651Z,181.35
2023-03-13T15:44:01.761Z,161.75
2023-03-13T15:46:28.325Z,159.43
2023-03-13T15:48:54.912Z,146.98
2023-03-13T15:51:21.269Z,139.60
2023-03-13T15:53:47.850Z,134.68
2023-03-13T15:56:14.223Z,132.15
2023-03-13T15:58:40.671Z,123.13
2023-03-13T16:01:07.917Z,115.72
2023-03-13T16:03:34.300Z,124.28
2023-03-13T16:06:00.852Z,122.47
2023-03-13T16:08:36.904Z,107.15
2023-03-13T16:11:03.735Z,163.32
2023-03-13T16:13:30.119Z,221.00
2023-03-13T16:15:56.747Z,225.60
2023-03-13T16:18:23.630Z,206.32
2023-03-13T16:20:49.989Z,204.23
2023-03-13T16:23:16.816Z,197.13
2023-03-13T16:25:43.654Z,188.60
2023-03-13T16:28:10.067Z,180.70
2023-03-13T16:30:36.518Z,168.00
2023-03-13T16:33:03.553Z,156.75
2023-03-13T16:35:30.083Z,237.90
2023-03-13T16:37:56.541Z,306.65
2023-03-13T16:40:23.123Z,282.88
2023-03-13T16:42:49.489Z,266.60
2023-03-13T16:45:15.931Z,245.18
2023-03-13T16:47:42.358Z,240.00
2023-03-13T16:50:09.030Z,229.15
2023-03-13T16:52:35.854Z,216.45
2023-03-13T16:55:02.517Z,207.75
2023-03-13T16:57:28.918Z,201.20
2023-03-13T16:59:55.589Z,189.35
2023-03-13T17:02:21.998Z,183.82
2023-03-13T17:04:48.451Z,171.48
2023-03-13T17:07:15.099Z,166.70
2023-03-13T17:09:41.472Z,265.45
2023-03-13T17:12:07.864Z,326.13
2023-03-13T17:14:34.172Z,327.48
2023-03-13T17:17:00.545Z,328.65
2023-03-13T17:19:26.923Z,322.45
2023-03-13T17:21:54.077Z,319.88
2023-03-13T17:24:20.361Z,313.00
2023-03-13T17:26:46.768Z,300.25
2023-03-13T17:29:13.204Z,302.30
2023-03-13T17:31:39.944Z,291.75
2023-03-13T17:34:06.470Z,280.00
2023-03-13T17:36:32.869Z,277.80
2023-03-13T17:38:59.383Z,267.15
2023-03-13T17:41:25.678Z,332.33
2023-03-13T17:43:52.252Z,425.05
2023-03-13T17:46:19.241Z,414.85
2023-03-13T17:48:45.678Z,347.75
2023-03-13T17:51:12.024Z,361.40
2023-03-13T17:53:38.761Z,345.95
2023-03-13T17:56:05.144Z,341.25
2023-03-13T17:58:31.812Z,323.45
2023-03-13T18:00:58.564Z,308.33
2023-03-13T18:03:25.188Z,283.73
2023-03-13T18:05:51.687Z,286.77
2023-03-13T18:08:18.127Z,273.48
2023-03-13T18:10:44.581Z,292.10
2023-03-13T18:13:11.068Z,347.02
2023-03-13T18:15:37.432Z,354.65
2023-03-13T18:18:03.977Z,336.50
2023-03-13T18:20:30.802Z,314.27
2023-03-13T18:22:57.601Z,306.30
2023-03-13T18:25:24.187Z,299.10
2023-03-13T18:27:50.526Z,306.42
2023-03-13T18:30:16.950Z,337.67
2023-03-13T18:32:43.451Z,451.83
2023-03-13T18:35:09.876Z,482.92
2023-03-13T18:37:36.421Z,468.92
2023-03-13T18:40:02.739Z,437.17
2023-03-13T18:42:29.126Z,422.73
2023-03-13T18:44:55.655Z,401.02
2023-03-13T18:47:22.024Z,388.40
2023-03-13T18:49:48.922Z,417.50
2023-03-13T18:52:15.437Z,424.98
2023-03-13T18:54:42.110Z,403.50
2023-03-13T18:57:08.462Z,378.25
2023-03-13T18:59:35.214Z,377.58
2023-03-13T19:02:01.598Z,344.00
2023-03-13T19:04:28.088Z,339.05
2023-03-13T19:06:54.688Z,311.15
2023-03-13T19:09:41.663Z,313.67
2023-03-13T19:12:07.756Z,302.08
2023-03-13T19:14:34.594Z,284.77
2023-03-13T19:17:01.433Z,267.60
2023-03-13T19:19:28.069Z,255.75
2023-03-13T19:21:54.802Z,243.18
2023-03-13T19:24:21.268Z,346.83
2023-03-13T19:26:47.678Z,381.50
2023-03-13T19:29:14.346Z,349.38
2023-03-13T19:31:40.717Z,324.45
2023-03-13T19:34:07.152Z,324.45
2023-03-13T19:36:35.486Z,308.20
2023-03-13T19:39:03.691Z,299.88
2023-03-13T19:41:30.107Z,277.23
2023-03-13T19:43:56.789Z,275.40
2023-03-13T19:46:23.214Z,268.77
2023-03-13T19:48:49.778Z,258.35
2023-03-13T19:51:16.649Z,250.32
2023-03-13T19:53:43.393Z,244.02
2023-03-13T19:56:09.795Z,245.60
2023-03-13T19:58:36.330Z,237.82
2023-03-13T20:01:15.059Z,243.50
2023-03-13T20:03:43.851Z,325.52
2023-03-13T20:06:10.364Z,356.00
2023-03-13T20:08:37.526Z,337.63
2023-03-13T20:11:03.909Z,324.67
2023-03-13T20:13:30.340Z,312.50
2023-03-13T20:15:56.681Z,306.02
2023-03-13T20:18:23.202Z,294.70
2023-03-13T20:20:49.951Z,275.77
2023-03-13T20:23:16.273Z,282.75
2023-03-13T20:25:43.281Z,274.80
2023-03-13T20:28:09.841Z,263.15
2023-03-13T20:30:36.202Z,255.45
2023-03-13T20:33:02.620Z,344.67
2023-03-13T20:35:29.597Z,407.92
2023-03-13T20:37:55.962Z,405.15
2023-03-13T20:40:22.824Z,396.45
2023-03-13T20:42:49.191Z,374.60
2023-03-13T20:45:15.577Z,373.70
2023-03-13T20:47:41.875Z,353.05
2023-03-13T20:50:08.298Z,345.90
2023-03-13T20:52:34.670Z,338.35
2023-03-13T20:55:01.470Z,324.80
2023-03-13T20:57:28.261Z,312.45
2023-03-13T20:59:54.640Z,297.10
2023-03-13T21:02:21.840Z,294.95
2023-03-13T21:04:48.858Z,290.25
2023-03-13T21:07:15.290Z,271.02
2023-03-13T21:09:41.885Z,264.85
2023-03-13T21:12:08.888Z,256.45
2023-03-13T21:14:35.270Z,248.20
2023-03-13T21:17:02.188Z,243.10
2023-03-13T21:19:28.713Z,372.00
2023-03-13T21:21:55.895Z,375.10
2023-03-13T21:24:22.260Z,371.45
2023-03-13T21:26:48.698Z,358.23
2023-03-13T21:29:15.209Z,342.60
2023-03-13T21:31:41.647Z,327.30
2023-03-13T21:34:08.022Z,323.80
2023-03-13T21:36:34.931Z,314.25
2023-03-13T21:39:01.347Z,297.83
2023-03-13T21:41:27.752Z,290.48
2023-03-13T21:43:54.145Z,273.15
2023-03-13T21:46:20.546Z,270.70
2023-03-13T21:48:47.282Z,262.52
2023-03-13T21:51:14.203Z,251.63
2023-03-13T21:53:40.992Z,243.93
2023-03-13T21:56:07.305Z,229.88
2023-03-13T21:58:33.731Z,224.88
2023-03-13T22:01:00.319Z,275.90
2023-03-13T22:03:26.973Z,340.75
2023-03-13T22:05:53.434Z,385.63
2023-03-13T22:08:19.766Z,361.42
2023-03-13T22:10:46.174Z,348.20
2023-03-13T22:13:12.630Z,428.98
2023-03-13T22:15:39.415Z,465.83
2023-03-13T22:18:05.735Z,436.35
2023-03-13T22:20:32.123Z,413.77
2023-03-13T22:22:59.022Z,398.98
2023-03-13T22:25:25.547Z,390.38
2023-03-13T22:27:52.396Z,380.77
2023-03-13T22:30:18.707Z,369.35
2023-03-13T22:32:45.269Z,359.63
2023-03-13T22:35:11.759Z,353.48
2023-03-13T22:37:38.808Z,398.13
2023-03-13T22:40:05.153Z,529.15
2023-03-13T22:42:31.535Z,469.27
2023-03-13T22:44:57.835Z,458.90
2023-03-13T22:47:24.159Z,441.65
2023-03-13T22:49:50.925Z,437.88
2023-03-13T22:52:17.287Z,525.10
2023-03-13T22:54:44.076Z,541.78
2023-03-13T22:57:10.423Z,512.88
2023-03-13T22:59:37.379Z,501.58
2023-03-13T23:02:03.792Z,496.27
2023-03-13T23:04:30.247Z,484.67
2023-03-13T23:06:57.041Z,480.00
2023-03-13T23:09:23.546Z,462.40
2023-03-13T23:11:49.888Z,462.85
2023-03-13T23:14:16.649Z,455.52
2023-03-13T23:16:43.156Z,445.50
2023-03-13T23:19:09.671Z,426.00
2023-03-13T23:21:36.227Z,421.58
2023-03-13T23:24:02.727Z,426.67
2023-03-13T23:26:29.655Z,421.13
2023-03-13T23:28:56.064Z,402.83
2023-03-13T23:31:23.116Z,399.77
2023-03-13T23:33:49.674Z,397.67
2023-03-13T23:36:16.428Z,384.67
2023-03-13T23:38:43.447Z,376.10
2023-03-13T23:41:09.797Z,370.42
2023-03-13T23:43:36.298Z,363.83
2023-03-13T23:46:02.682Z,359.42
2023-03-13T23:48:29.408Z,367.77
2023-03-13T23:50:56.206Z,353.27
2023-03-13T23:53:22.654Z,346.75
2023-03-13T23:55:49.298Z,343.90
2023-03-13T23:58:15.627Z,339.10
